Terminal Aerodrome Forecast
Issued by NWS

Home | Current Version | Previous Version | Text Only | Print | Product List | Glossary On
Versions: 1 2 3 4 5 6 7 8 9 10 11 12 13 14 15 16 17 18 19 20 21 22 23 24
000
FTUS45 KGGW 131124
TAFGDV
TAF
KGDV 131124Z 1312/1412 30018KT P6SM SKC
     FM132300 30013KT P6SM BKN110
     FM140600 29014G23KT P6SM VCSH BKN045
     FM140800 31018G26KT P6SM BKN026=

USA.gov is the U.S. government's official web portal to all federal, state and local government web resources and services.